sensor_id;sensor_type;location;lat;lon;timestamp;temperature;humidity
24152;DHT22;12311;50.866;4.332;2023-03-16T06:37:36;7.60;99.90
24152;DHT22;12311;50.866;4.332;2023-03-16T06:40:02;7.70;99.90
24152;DHT22;12311;50.866;4.332;2023-03-16T06:42:30;7.80;99.90
24152;DHT22;12311;50.866;4.332;2023-03-16T06:44:55;7.70;99.90
24152;DHT22;12311;50.866;4.332;2023-03-16T06:47:21;7.80;99.90
24152;DHT22;12311;50.866;4.332;2023-03-16T06:49:47;7.80;99.90
24152;DHT22;12311;50.866;4.332;2023-03-16T06:52:13;7.80;99.90
24152;DHT22;12311;50.866;4.332;2023-03-16T06:54:40;7.80;99.90
24152;DHT22;12311;50.866;4.332;2023-03-16T06:57:06;7.80;99.90
24152;DHT22;12311;50.866;4.332;2023-03-16T06:59:31;7.80;99.90
24152;DHT22;12311;50.866;4.332;2023-03-16T07:01:57;7.80;99.90
24152;DHT22;12311;50.866;4.332;2023-03-16T07:04:23;7.80;99.90
24152;DHT22;12311;50.866;4.332;2023-03-16T07:06:49;7.80;99.90
24152;DHT22;12311;50.866;4.332;2023-03-16T07:09:15;7.90;99.90
24152;DHT22;12311;50.866;4.332;2023-03-16T07:11:40;7.90;99.90
24152;DHT22;12311;50.866;4.332;2023-03-16T07:14:06;7.90;99.90
24152;DHT22;12311;50.866;4.332;2023-03-16T07:16:32;7.80;99.90
24152;DHT22;12311;50.866;4.332;2023-03-16T07:18:58;7.80;99.90
24152;DHT22;12311;50.866;4.332;2023-03-16T07:21:23;7.90;99.90
24152;DHT22;12311;50.866;4.332;2023-03-16T07:23:49;7.90;99.90
24152;DHT22;12311;50.866;4.332;2023-03-16T07:26:16;8.00;99.90
24152;DHT22;12311;50.866;4.332;2023-03-16T07:28:42;8.10;99.90
24152;DHT22;12311;50.866;4.332;2023-03-16T07:31:07;8.10;99.90
24152;DHT22;12311;50.866;4.332;2023-03-16T07:33:35;8.10;99.90
24152;DHT22;12311;50.866;4.332;2023-03-16T07:36:00;8.20;99.90
24152;DHT22;12311;50.866;4.332;2023-03-16T07:38:31;8.20;99.90
24152;DHT22;12311;50.866;4.332;2023-03-16T07:41:00;8.30;99.90
24152;DHT22;12311;50.866;4.332;2023-03-16T07:43:26;8.30;99.90
24152;DHT22;12311;50.866;4.332;2023-03-16T07:45:54;8.40;99.90
24152;DHT22;12311;50.866;4.332;2023-03-16T07:48:20;8.50;99.90
24152;DHT22;12311;50.866;4.332;2023-03-16T07:50:46;8.40;99.90
24152;DHT22;12311;50.866;4.332;2023-03-16T07:53:13;8.60;99.90
24152;DHT22;12311;50.866;4.332;2023-03-16T07:55:40;8.70;99.90
24152;DHT22;12311;50.866;4.332;2023-03-16T07:58:07;8.80;99.90
24152;DHT22;12311;50.866;4.332;2023-03-16T08:00:35;8.80;99.90
24152;DHT22;12311;50.866;4.332;2023-03-16T08:03:00;8.80;99.90
24152;DHT22;12311;50.866;4.332;2023-03-16T08:05:26;8.90;99.90
24152;DHT22;12311;50.866;4.332;2023-03-16T08:07:52;8.90;99.90
24152;DHT22;12311;50.866;4.332;2023-03-16T08:10:18;9.00;99.90
24152;DHT22;12311;50.866;4.332;2023-03-16T08:12:44;9.10;99.90
24152;DHT22;12311;50.866;4.332;2023-03-16T08:15:10;9.20;99.90
24152;DHT22;12311;50.866;4.332;2023-03-16T08:17:36;9.10;99.90
24152;DHT22;12311;50.866;4.332;2023-03-16T08:20:03;9.20;99.90
24152;DHT22;12311;50.866;4.332;2023-03-16T08:22:39;9.20;99.90
24152;DHT22;12311;50.866;4.332;2023-03-16T08:25:06;9.20;99.90
24152;DHT22;12311;50.866;4.332;2023-03-16T08:27:35;9.30;99.90
24152;DHT22;12311;50.866;4.332;2023-03-16T08:30:04;9.40;99.90
24152;DHT22;12311;50.866;4.332;2023-03-16T08:32:31;9.60;99.90
24152;DHT22;12311;50.866;4.332;2023-03-16T08:34:57;9.70;99.90
24152;DHT22;12311;50.866;4.332;2023-03-16T08:37:25;9.80;99.90
24152;DHT22;12311;50.866;4.332;2023-03-16T08:39:52;10.00;99.90
24152;DHT22;12311;50.866;4.332;2023-03-16T08:42:19;10.00;99.90
24152;DHT22;12311;50.866;4.332;2023-03-16T08:44:46;10.00;99.90
24152;DHT22;12311;50.866;4.332;2023-03-16T08:47:15;10.10;99.90
24152;DHT22;12311;50.866;4.332;2023-03-16T08:49:41;10.10;99.90
24152;DHT22;12311;50.866;4.332;2023-03-16T08:52:07;10.30;99.90
24152;DHT22;12311;50.866;4.332;2023-03-16T08:54:35;10.40;99.90
24152;DHT22;12311;50.866;4.332;2023-03-16T08:57:01;10.40;99.90
24152;DHT22;12311;50.866;4.332;2023-03-16T08:59:27;10.40;99.90
24152;DHT22;12311;50.866;4.332;2023-03-16T09:01:53;10.30;99.90
24152;DHT22;12311;50.866;4.332;2023-03-16T09:04:19;10.40;99.90
24152;DHT22;12311;50.866;4.332;2023-03-16T09:06:46;10.40;99.90
24152;DHT22;12311;50.866;4.332;2023-03-16T09:09:13;10.50;99.90
24152;DHT22;12311;50.866;4.332;2023-03-16T09:11:38;10.70;99.90
24152;DHT22;12311;50.866;4.332;2023-03-16T09:14:04;10.70;99.90
24152;DHT22;12311;50.866;4.332;2023-03-16T09:16:31;10.60;99.90
24152;DHT22;12311;50.866;4.332;2023-03-16T09:18:57;10.80;99.90
24152;DHT22;12311;50.866;4.332;2023-03-16T09:21:23;10.90;99.90
24152;DHT22;12311;50.866;4.332;2023-03-16T09:23:48;11.00;99.90
24152;DHT22;12311;50.866;4.332;2023-03-16T09:26:15;10.90;99.90
24152;DHT22;12311;50.866;4.332;2023-03-16T09:28:41;11.00;99.90
24152;DHT22;12311;50.866;4.332;2023-03-16T09:31:07;11.10;99.90
24152;DHT22;12311;50.866;4.332;2023-03-16T09:33:34;11.10;99.90
24152;DHT22;12311;50.866;4.332;2023-03-16T09:36:01;11.20;99.90
24152;DHT22;12311;50.866;4.332;2023-03-16T09:38:27;11.30;99.90
24152;DHT22;12311;50.866;4.332;2023-03-16T09:41:01;11.20;99.90
24152;DHT22;12311;50.866;4.332;2023-03-16T09:46:31;11.10;99.90
24152;DHT22;12311;50.866;4.332;2023-03-16T09:48:59;11.20;99.90
24152;DHT22;12311;50.866;4.332;2023-03-16T09:55:03;11.20;99.90
24152;DHT22;12311;50.866;4.332;2023-03-16T09:57:32;11.20;99.90
24152;DHT22;12311;50.866;4.332;2023-03-16T10:00:26;11.20;99.90
24152;DHT22;12311;50.866;4.332;2023-03-16T10:03:07;11.40;99.90
24152;DHT22;12311;50.866;4.332;2023-03-16T10:05:35;11.60;99.90
24152;DHT22;12311;50.866;4.332;2023-03-16T10:11:30;11.80;99.90
24152;DHT22;12311;50.866;4.332;2023-03-16T10:14:23;12.10;99.90
24152;DHT22;12311;50.866;4.332;2023-03-16T10:17:13;12.10;99.90
24152;DHT22;12311;50.866;4.332;2023-03-16T10:22:29;12.40;99.90
24152;DHT22;12311;50.866;4.332;2023-03-16T10:25:03;12.60;99.90
24152;DHT22;12311;50.866;4.332;2023-03-16T10:27:34;12.80;99.90
24152;DHT22;12311;50.866;4.332;2023-03-16T10:30:06;13.10;99.90
24152;DHT22;12311;50.866;4.332;2023-03-16T10:32:32;13.40;99.90
24152;DHT22;12311;50.866;4.332;2023-03-16T10:37:58;13.70;99.90
24152;DHT22;12311;50.866;4.332;2023-03-16T10:40:24;13.80;99.90
24152;DHT22;12311;50.866;4.332;2023-03-16T10:42:50;14.00;99.90
24152;DHT22;12311;50.866;4.332;2023-03-16T10:45:30;14.10;99.90
24152;DHT22;12311;50.866;4.332;2023-03-16T10:48:12;14.30;99.90
24152;DHT22;12311;50.866;4.332;2023-03-16T10:50:40;14.40;99.90
24152;DHT22;12311;50.866;4.332;2023-03-16T10:53:17;13.90;99.90
24152;DHT22;12311;50.866;4.332;2023-03-16T10:55:46;13.80;99.90
24152;DHT22;12311;50.866;4.332;2023-03-16T10:58:23;13.70;99.90
24152;DHT22;12311;50.866;4.332;2023-03-16T11:00:49;13.60;99.90
24152;DHT22;12311;50.866;4.332;2023-03-16T11:03:27;13.50;99.90
24152;DHT22;12311;50.866;4.332;2023-03-16T11:06:00;13.50;99.90
24152;DHT22;12311;50.866;4.332;2023-03-16T11:08:31;13.50;99.90
24152;DHT22;12311;50.866;4.332;2023-03-16T11:10:59;13.40;99.90
24152;DHT22;12311;50.866;4.332;2023-03-16T11:13:37;13.20;99.90
24152;DHT22;12311;50.866;4.332;2023-03-16T11:16:38;13.30;99.90
24152;DHT22;12311;50.866;4.332;2023-03-16T11:19:40;13.40;99.90
24152;DHT22;12311;50.866;4.332;2023-03-16T11:22:15;13.50;99.90
24152;DHT22;12311;50.866;4.332;2023-03-16T11:30:14;14.00;99.90
24152;DHT22;12311;50.866;4.332;2023-03-16T11:32:46;13.90;99.90
24152;DHT22;12311;50.866;4.332;2023-03-16T11:35:41;14.00;99.90
24152;DHT22;12311;50.866;4.332;2023-03-16T11:38:16;14.20;99.90
24152;DHT22;12311;50.866;4.332;2023-03-16T11:40:59;14.10;99.90
24152;DHT22;12311;50.866;4.332;2023-03-16T11:56:53;13.60;99.90
24152;DHT22;12311;50.866;4.332;2023-03-16T12:07:44;14.40;99.90
24152;DHT22;12311;50.866;4.332;2023-03-16T12:10:36;14.40;99.90
24152;DHT22;12311;50.866;4.332;2023-03-16T12:16:18;14.70;99.80
24152;DHT22;12311;50.866;4.332;2023-03-16T12:18:53;14.50;99.40
24152;DHT22;12311;50.866;4.332;2023-03-16T12:21:30;14.50;99.40
24152;DHT22;12311;50.866;4.332;2023-03-16T12:24:05;14.60;99.80
24152;DHT22;12311;50.866;4.332;2023-03-16T12:26:39;14.70;99.30
24152;DHT22;12311;50.866;4.332;2023-03-16T12:31:58;14.90;98.30
24152;DHT22;12311;50.866;4.332;2023-03-16T12:45:45;14.90;98.80
24152;DHT22;12311;50.866;4.332;2023-03-16T12:48:31;15.00;98.90
24152;DHT22;12311;50.866;4.332;2023-03-16T12:51:02;15.20;98.50
24152;DHT22;12311;50.866;4.332;2023-03-16T12:53:42;15.30;98.40
24152;DHT22;12311;50.866;4.332;2023-03-16T12:56:15;15.60;98.30
24152;DHT22;12311;50.866;4.332;2023-03-16T12:58:46;15.60;96.60
24152;DHT22;12311;50.866;4.332;2023-03-16T13:01:15;15.60;96.00
24152;DHT22;12311;50.866;4.332;2023-03-16T13:03:43;15.90;96.40
24152;DHT22;12311;50.866;4.332;2023-03-16T13:06:21;16.20;95.90
24152;DHT22;12311;50.866;4.332;2023-03-16T13:08:52;16.30;95.60
24152;DHT22;12311;50.866;4.332;2023-03-16T13:11:19;16.30;94.90
24152;DHT22;12311;50.866;4.332;2023-03-16T13:14:06;16.30;95.50
24152;DHT22;12311;50.866;4.332;2023-03-16T13:16:35;16.50;94.60
24152;DHT22;12311;50.866;4.332;2023-03-16T13:21:47;17.10;93.90
24152;DHT22;12311;50.866;4.332;2023-03-16T13:24:27;16.80;93.20
24152;DHT22;12311;50.866;4.332;2023-03-16T13:27:14;17.00;94.00
24152;DHT22;12311;50.866;4.332;2023-03-16T13:29:58;17.10;92.80
24152;DHT22;12311;50.866;4.332;2023-03-16T13:32:26;16.80;92.60
24152;DHT22;12311;50.866;4.332;2023-03-16T13:35:00;16.80;92.40
24152;DHT22;12311;50.866;4.332;2023-03-16T13:37:28;16.80;92.00
24152;DHT22;12311;50.866;4.332;2023-03-16T13:39:56;16.90;91.60
24152;DHT22;12311;50.866;4.332;2023-03-16T13:42:24;16.80;91.80
24152;DHT22;12311;50.866;4.332;2023-03-16T13:44:57;16.90;91.60
24152;DHT22;12311;50.866;4.332;2023-03-16T13:47:25;16.80;91.20
24152;DHT22;12311;50.866;4.332;2023-03-16T13:49:59;16.50;90.90
24152;DHT22;12311;50.866;4.332;2023-03-16T13:52:34;16.60;92.20
24152;DHT22;12311;50.866;4.332;2023-03-16T13:55:09;17.10;90.90
24152;DHT22;12311;50.866;4.332;2023-03-16T13:57:39;17.10;90.20
24152;DHT22;12311;50.866;4.332;2023-03-16T14:02:41;16.70;90.20
24152;DHT22;12311;50.866;4.332;2023-03-16T14:05:23;16.60;90.30
24152;DHT22;12311;50.866;4.332;2023-03-16T14:07:51;16.60;90.40
24152;DHT22;12311;50.866;4.332;2023-03-16T14:10:17;16.90;90.10
24152;DHT22;12311;50.866;4.332;2023-03-16T14:12:54;17.10;89.50
24152;DHT22;12311;50.866;4.332;2023-03-16T14:15:23;17.20;86.90
24152;DHT22;12311;50.866;4.332;2023-03-16T14:17:50;17.10;87.40
24152;DHT22;12311;50.866;4.332;2023-03-16T14:20:23;17.30;86.90
24152;DHT22;12311;50.866;4.332;2023-03-16T14:22:52;17.50;85.30
24152;DHT22;12311;50.866;4.332;2023-03-16T14:25:21;17.30;84.70
24152;DHT22;12311;50.866;4.332;2023-03-16T14:28:00;17.10;85.80
24152;DHT22;12311;50.866;4.332;2023-03-16T14:30:28;16.80;86.40
24152;DHT22;12311;50.866;4.332;2023-03-16T14:32:59;16.50;87.00
24152;DHT22;12311;50.866;4.332;2023-03-16T14:35:30;16.40;87.70
24152;DHT22;12311;50.866;4.332;2023-03-16T14:37:56;16.20;87.50
24152;DHT22;12311;50.866;4.332;2023-03-16T14:40:31;16.30;87.50
24152;DHT22;12311;50.866;4.332;2023-03-16T14:43:01;16.30;88.30
24152;DHT22;12311;50.866;4.332;2023-03-16T14:45:35;16.20;87.90
24152;DHT22;12311;50.866;4.332;2023-03-16T14:48:08;16.50;87.10
24152;DHT22;12311;50.866;4.332;2023-03-16T14:50:41;16.80;85.90
24152;DHT22;12311;50.866;4.332;2023-03-16T14:53:08;17.00;84.80
24152;DHT22;12311;50.866;4.332;2023-03-16T14:55:34;17.40;83.90
24152;DHT22;12311;50.866;4.332;2023-03-16T14:58:00;17.40;82.90
24152;DHT22;12311;50.866;4.332;2023-03-16T15:00:27;17.40;81.20
24152;DHT22;12311;50.866;4.332;2023-03-16T15:03:02;17.20;80.70
24152;DHT22;12311;50.866;4.332;2023-03-16T15:05:37;17.30;81.60
24152;DHT22;12311;50.866;4.332;2023-03-16T15:08:06;17.30;81.50
24152;DHT22;12311;50.866;4.332;2023-03-16T15:10:35;17.10;81.10
24152;DHT22;12311;50.866;4.332;2023-03-16T15:13:01;16.90;81.40
24152;DHT22;12311;50.866;4.332;2023-03-16T15:15:38;16.70;81.70
24152;DHT22;12311;50.866;4.332;2023-03-16T15:18:07;17.00;81.40
24152;DHT22;12311;50.866;4.332;2023-03-16T15:20:37;17.10;80.90
24152;DHT22;12311;50.866;4.332;2023-03-16T15:23:04;17.30;81.50
24152;DHT22;12311;50.866;4.332;2023-03-16T15:25:34;17.40;79.10
24152;DHT22;12311;50.866;4.332;2023-03-16T15:28:21;17.60;77.80
24152;DHT22;12311;50.866;4.332;2023-03-16T15:30:59;18.10;75.30
24152;DHT22;12311;50.866;4.332;2023-03-16T15:33:25;17.80;76.30
24152;DHT22;12311;50.866;4.332;2023-03-16T15:35:54;17.70;75.30
24152;DHT22;12311;50.866;4.332;2023-03-16T15:38:23;17.80;74.00
24152;DHT22;12311;50.866;4.332;2023-03-16T15:40:50;17.60;73.20
24152;DHT22;12311;50.866;4.332;2023-03-16T15:43:22;17.20;74.20
24152;DHT22;12311;50.866;4.332;2023-03-16T15:45:49;17.00;75.50
24152;DHT22;12311;50.866;4.332;2023-03-16T15:48:17;16.70;75.40
24152;DHT22;12311;50.866;4.332;2023-03-16T15:50:52;16.40;75.90
24152;DHT22;12311;50.866;4.332;2023-03-16T15:53:28;16.10;76.90
24152;DHT22;12311;50.866;4.332;2023-03-16T15:56:03;16.10;77.80
24152;DHT22;12311;50.866;4.332;2023-03-16T15:58:31;16.10;78.00
24152;DHT22;12311;50.866;4.332;2023-03-16T16:00:59;16.30;78.80
24152;DHT22;12311;50.866;4.332;2023-03-16T16:03:26;16.50;78.70
24152;DHT22;12311;50.866;4.332;2023-03-16T16:05:52;16.90;77.80
24152;DHT22;12311;50.866;4.332;2023-03-16T16:08:19;17.20;76.90
24152;DHT22;12311;50.866;4.332;2023-03-16T16:10:46;17.10;76.00
24152;DHT22;12311;50.866;4.332;2023-03-16T16:13:19;17.00;76.50
24152;DHT22;12311;50.866;4.332;2023-03-16T16:15:46;16.90;76.40
24152;DHT22;12311;50.866;4.332;2023-03-16T16:18:27;16.80;78.50
24152;DHT22;12311;50.866;4.332;2023-03-16T16:20:55;16.90;78.20
24152;DHT22;12311;50.866;4.332;2023-03-16T16:23:22;16.80;78.60
24152;DHT22;12311;50.866;4.332;2023-03-16T16:25:48;16.80;80.00
24152;DHT22;12311;50.866;4.332;2023-03-16T16:28:21;17.00;81.10
24152;DHT22;12311;50.866;4.332;2023-03-16T16:30:47;17.10;81.80
24152;DHT22;12311;50.866;4.332;2023-03-16T16:35:54;16.20;85.70
24152;DHT22;12311;50.866;4.332;2023-03-16T16:38:21;16.10;86.90
24152;DHT22;12311;50.866;4.332;2023-03-16T16:40:48;15.80;88.80
24152;DHT22;12311;50.866;4.332;2023-03-16T16:43:33;15.70;89.30
24152;DHT22;12311;50.866;4.332;2023-03-16T16:46:01;15.30;90.30
24152;DHT22;12311;50.866;4.332;2023-03-16T16:48:37;15.20;91.40
24152;DHT22;12311;50.866;4.332;2023-03-16T16:51:05;15.10;91.60
24152;DHT22;12311;50.866;4.332;2023-03-16T16:53:34;15.10;92.00
24152;DHT22;12311;50.866;4.332;2023-03-16T16:56:00;14.90;92.20
24152;DHT22;12311;50.866;4.332;2023-03-16T16:58:26;14.90;92.60
24152;DHT22;12311;50.866;4.332;2023-03-16T17:00:54;14.90;92.70
24152;DHT22;12311;50.866;4.332;2023-03-16T17:03:22;14.80;92.70
24152;DHT22;12311;50.866;4.332;2023-03-16T17:05:49;14.70;93.00
24152;DHT22;12311;50.866;4.332;2023-03-16T17:08:14;14.70;93.30
24152;DHT22;12311;50.866;4.332;2023-03-16T17:10:40;14.80;93.40
24152;DHT22;12311;50.866;4.332;2023-03-16T17:13:07;14.70;93.50
24152;DHT22;12311;50.866;4.332;2023-03-16T17:15:41;14.60;93.70
24152;DHT22;12311;50.866;4.332;2023-03-16T17:18:12;14.60;93.60
24152;DHT22;12311;50.866;4.332;2023-03-16T17:20:38;14.60;93.80
24152;DHT22;12311;50.866;4.332;2023-03-16T17:23:22;14.60;93.80
24152;DHT22;12311;50.866;4.332;2023-03-16T17:25:49;14.50;93.70
24152;DHT22;12311;50.866;4.332;2023-03-16T17:28:16;14.50;93.80
24152;DHT22;12311;50.866;4.332;2023-03-16T17:30:44;14.50;93.90
24152;DHT22;12311;50.866;4.332;2023-03-16T17:33:13;14.40;94.00
24152;DHT22;12311;50.866;4.332;2023-03-16T17:35:40;14.30;94.30
24152;DHT22;12311;50.866;4.332;2023-03-16T17:38:22;14.20;94.50
24152;DHT22;12311;50.866;4.332;2023-03-16T17:40:49;14.20;94.70
24152;DHT22;12311;50.866;4.332;2023-03-16T17:43:18;14.10;94.80
24152;DHT22;12311;50.866;4.332;2023-03-16T17:45:46;14.20;95.00
24152;DHT22;12311;50.866;4.332;2023-03-16T17:48:20;14.10;95.20
24152;DHT22;12311;50.866;4.332;2023-03-16T17:50:46;13.90;95.50
24152;DHT22;12311;50.866;4.332;2023-03-16T17:53:13;13.80;95.90
24152;DHT22;12311;50.866;4.332;2023-03-16T17:55:40;13.80;96.20
24152;DHT22;12311;50.866;4.332;2023-03-16T18:00:42;13.70;97.00
24152;DHT22;12311;50.866;4.332;2023-03-16T18:03:13;13.70;97.60
24152;DHT22;12311;50.866;4.332;2023-03-16T18:05:39;13.60;98.10
24152;DHT22;12311;50.866;4.332;2023-03-16T18:08:19;13.50;98.80
24152;DHT22;12311;50.866;4.332;2023-03-16T18:10:50;13.50;99.10
24152;DHT22;12311;50.866;4.332;2023-03-16T18:13:23;13.60;99.60
24152;DHT22;12311;50.866;4.332;2023-03-16T18:15:51;13.50;99.90
24152;DHT22;12311;50.866;4.332;2023-03-16T18:18:19;13.50;99.90
24152;DHT22;12311;50.866;4.332;2023-03-16T18:20:47;13.50;99.90
24152;DHT22;12311;50.866;4.332;2023-03-16T18:23:24;13.40;99.90
24152;DHT22;12311;50.866;4.332;2023-03-16T18:25:52;13.40;99.90
24152;DHT22;12311;50.866;4.332;2023-03-16T18:28:19;13.40;99.90
24152;DHT22;12311;50.866;4.332;2023-03-16T18:30:48;13.40;99.90
24152;DHT22;12311;50.866;4.332;2023-03-16T18:33:30;13.30;99.90
24152;DHT22;12311;50.866;4.332;2023-03-16T18:35:59;13.30;99.90
24152;DHT22;12311;50.866;4.332;2023-03-16T18:41:01;13.20;99.90
24152;DHT22;12311;50.866;4.332;2023-03-16T18:43:27;13.20;99.90
24152;DHT22;12311;50.866;4.332;2023-03-16T18:45:54;13.20;99.90
24152;DHT22;12311;50.866;4.332;2023-03-16T18:48:31;13.20;99.90
24152;DHT22;12311;50.866;4.332;2023-03-16T18:50:58;13.10;99.90
24152;DHT22;12311;50.866;4.332;2023-03-16T18:53:25;13.10;99.90
24152;DHT22;12311;50.866;4.332;2023-03-16T18:55:50;13.00;99.90
24152;DHT22;12311;50.866;4.332;2023-03-16T18:58:21;13.00;99.90
24152;DHT22;12311;50.866;4.332;2023-03-16T19:00:52;12.90;99.90
24152;DHT22;12311;50.866;4.332;2023-03-16T19:03:25;12.90;99.90
24152;DHT22;12311;50.866;4.332;2023-03-16T19:05:52;12.90;99.90
24152;DHT22;12311;50.866;4.332;2023-03-16T19:08:19;12.90;99.90
24152;DHT22;12311;50.866;4.332;2023-03-16T19:10:51;12.80;99.90
24152;DHT22;12311;50.866;4.332;2023-03-16T19:13:19;12.80;99.90
24152;DHT22;12311;50.866;4.332;2023-03-16T19:15:50;12.80;99.90
24152;DHT22;12311;50.866;4.332;2023-03-16T19:18:16;12.80;99.90
24152;DHT22;12311;50.866;4.332;2023-03-16T19:20:46;12.80;99.90
24152;DHT22;12311;50.866;4.332;2023-03-16T19:23:26;12.80;99.90
24152;DHT22;12311;50.866;4.332;2023-03-16T19:25:55;12.80;99.90
24152;DHT22;12311;50.866;4.332;2023-03-16T19:28:28;12.90;99.90
24152;DHT22;12311;50.866;4.332;2023-03-16T19:30:58;12.80;99.90
24152;DHT22;12311;50.866;4.332;2023-03-16T19:33:26;12.70;99.90
24152;DHT22;12311;50.866;4.332;2023-03-16T19:35:52;12.70;99.90
24152;DHT22;12311;50.866;4.332;2023-03-16T19:38:23;12.70;99.90
24152;DHT22;12311;50.866;4.332;2023-03-16T19:40:56;12.70;99.90
24152;DHT22;12311;50.866;4.332;2023-03-16T19:43:23;12.80;99.90
24152;DHT22;12311;50.866;4.332;2023-03-16T19:45:50;12.70;99.90
24152;DHT22;12311;50.866;4.332;2023-03-16T19:48:19;12.70;99.90
24152;DHT22;12311;50.866;4.332;2023-03-16T19:50:47;12.70;99.90
24152;DHT22;12311;50.866;4.332;2023-03-16T19:53:20;12.70;99.90
24152;DHT22;12311;50.866;4.332;2023-03-16T19:55:49;12.60;99.90
24152;DHT22;12311;50.866;4.332;2023-03-16T19:58:35;12.60;99.90
24152;DHT22;12311;50.866;4.332;2023-03-16T20:01:07;12.60;99.90
24152;DHT22;12311;50.866;4.332;2023-03-16T20:03:37;12.60;99.90
24152;DHT22;12311;50.866;4.332;2023-03-16T20:06:03;12.60;99.90
24152;DHT22;12311;50.866;4.332;2023-03-16T20:08:29;12.60;99.90
24152;DHT22;12311;50.866;4.332;2023-03-16T20:11:01;12.60;99.90
24152;DHT22;12311;50.866;4.332;2023-03-16T20:13:28;12.70;99.90
24152;DHT22;12311;50.866;4.332;2023-03-16T20:15:55;12.70;99.90
24152;DHT22;12311;50.866;4.332;2023-03-16T20:18:21;12.70;99.90
24152;DHT22;12311;50.866;4.332;2023-03-16T20:20:48;12.60;99.90
24152;DHT22;12311;50.866;4.332;2023-03-16T20:23:18;12.60;99.90
24152;DHT22;12311;50.866;4.332;2023-03-16T20:25:45;12.60;99.90
24152;DHT22;12311;50.866;4.332;2023-03-16T20:28:20;12.60;99.90
24152;DHT22;12311;50.866;4.332;2023-03-16T20:30:47;12.70;99.90
24152;DHT22;12311;50.866;4.332;2023-03-16T20:33:22;12.50;99.90
24152;DHT22;12311;50.866;4.332;2023-03-16T20:35:49;12.50;99.90
24152;DHT22;12311;50.866;4.332;2023-03-16T20:38:18;12.50;99.90
24152;DHT22;12311;50.866;4.332;2023-03-16T20:40:46;12.50;99.90
24152;DHT22;12311;50.866;4.332;2023-03-16T20:45:43;12.60;99.90
24152;DHT22;12311;50.866;4.332;2023-03-16T20:48:14;12.50;99.90
24152;DHT22;12311;50.866;4.332;2023-03-16T20:50:40;12.50;99.90
24152;DHT22;12311;50.866;4.332;2023-03-16T20:53:06;12.50;99.90
24152;DHT22;12311;50.866;4.332;2023-03-16T20:55:33;12.50;99.90
24152;DHT22;12311;50.866;4.332;2023-03-16T20:57:58;12.50;99.90
24152;DHT22;12311;50.866;4.332;2023-03-16T21:00:36;12.50;99.90
24152;DHT22;12311;50.866;4.332;2023-03-16T21:03:04;12.50;99.90
24152;DHT22;12311;50.866;4.332;2023-03-16T21:05:35;12.50;99.90
24152;DHT22;12311;50.866;4.332;2023-03-16T21:08:01;12.50;99.90
24152;DHT22;12311;50.866;4.332;2023-03-16T21:10:27;12.50;99.90
24152;DHT22;12311;50.866;4.332;2023-03-16T21:12:55;12.50;99.90
24152;DHT22;12311;50.866;4.332;2023-03-16T21:17:54;12.50;99.90
24152;DHT22;12311;50.866;4.332;2023-03-16T21:20:21;12.60;99.90
24152;DHT22;12311;50.866;4.332;2023-03-16T21:22:47;12.60;99.90
24152;DHT22;12311;50.866;4.332;2023-03-16T21:25:25;12.60;99.90
